createdAt,value
2023-11-12T00:01:07.572Z,290.55
2023-11-12T00:04:15.847Z,300.89
2023-11-12T00:07:25.717Z,313.29
2023-11-12T00:10:36.055Z,305.23
2023-11-12T00:13:43.350Z,300.15
2023-11-12T00:16:51.578Z,288.17
2023-11-12T00:20:00.841Z,293.22
2023-11-12T00:23:13.953Z,285.38
2023-11-12T00:26:22.775Z,279.68
2023-11-12T00:29:35.439Z,267.12
2023-11-12T00:32:42.741Z,273.53
2023-11-12T00:35:51.010Z,264.13
2023-11-12T00:39:00.837Z,265.88
2023-11-12T00:42:29.250Z,256.96
2023-11-12T00:45:36.522Z,252.25
2023-11-12T00:48:45.679Z,251.12
2023-11-12T00:51:53.074Z,234.31
2023-11-12T00:55:03.802Z,212.81
2023-11-12T00:58:11.360Z,179.96
2023-11-12T01:01:36.921Z,174.85
2023-11-12T01:04:44.401Z,174.31
2023-11-12T01:07:53.631Z,171.57
2023-11-12T01:11:03.658Z,169.48
2023-11-12T01:14:18.326Z,155.05
2023-11-12T01:17:25.902Z,143.99
2023-11-12T01:20:54.031Z,132.62
2023-11-12T01:24:04.745Z,130.77
2023-11-12T01:27:23.115Z,125.02
2023-11-12T01:30:32.966Z,109.52
2023-11-12T01:33:41.236Z,108.17
2023-11-12T01:36:48.524Z,114.57
2023-11-12T01:39:56.849Z,106.81
2023-11-12T01:43:06.785Z,106.49
2023-11-12T01:46:15.397Z,103.17
2023-11-12T01:49:25.083Z,103.21
2023-11-12T01:52:34.322Z,109.92
2023-11-12T01:55:42.168Z,114.10
2023-11-12T01:58:56.698Z,109.78
2023-11-12T02:02:04.640Z,121.71
2023-11-12T02:05:13.051Z,123.32
2023-11-12T02:08:23.454Z,125.87
2023-11-12T02:11:32.016Z,120.27
2023-11-12T02:14:41.962Z,112.38
2023-11-12T02:17:50.572Z,116.40
2023-11-12T02:20:58.224Z,118.45
2023-11-12T02:24:10.694Z,112.57
2023-11-12T02:27:18.186Z,117.66
2023-11-12T02:30:27.711Z,111.06
2023-11-12T02:33:35.688Z,110.32
2023-11-12T02:36:43.726Z,96.49
2023-11-12T02:40:01.050Z,95.40
2023-11-12T02:43:11.343Z,84.34
2023-11-12T02:46:19.412Z,81.14
2023-11-12T02:49:48.415Z,91.54
2023-11-12T02:52:59.463Z,103.50
2023-11-12T02:56:10.426Z,104.20
2023-11-12T02:59:18.440Z,96.78
2023-11-12T03:02:26.350Z,92.87
2023-11-12T03:05:35.753Z,93.87
2023-11-12T03:08:45.837Z,92.73
2023-11-12T03:11:57.184Z,102.27
2023-11-12T03:15:05.885Z,102.83
2023-11-12T03:18:14.071Z,100.92
2023-11-12T03:21:21.442Z,96.65
2023-11-12T03:24:29.577Z,84.88
2023-11-12T03:27:40.243Z,84.18
2023-11-12T03:30:48.625Z,84.81
2023-11-12T03:33:55.916Z,69.40
2023-11-12T03:37:04.083Z,70.50
2023-11-12T03:40:13.609Z,60.71
2023-11-12T03:43:24.206Z,62.21
2023-11-12T03:46:31.688Z,60.73
2023-11-12T03:49:46.048Z,67.58
2023-11-12T03:52:53.313Z,80.01
2023-11-12T03:56:01.320Z,69.33
2023-11-12T03:59:11.120Z,69.97
2023-11-12T04:02:19.865Z,71.83
2023-11-12T04:05:27.115Z,74.30
2023-11-12T04:08:35.177Z,84.19
2023-11-12T04:11:43.316Z,78.49
2023-11-12T04:14:54.316Z,75.66
2023-11-12T04:18:01.769Z,95.47
2023-11-12T04:21:09.959Z,87.97
2023-11-12T04:24:35.670Z,84.09
2023-11-12T04:27:43.808Z,91.95
2023-11-12T04:30:53.714Z,106.86
2023-11-12T04:34:02.164Z,110.03
2023-11-12T04:37:09.887Z,100.22
2023-11-12T04:40:37.048Z,97.36
2023-11-12T04:43:50.296Z,88.81
2023-11-12T04:47:01.081Z,93.01
2023-11-12T04:50:28.030Z,97.69
2023-11-12T04:53:56.536Z,97.94
2023-11-12T04:57:05.327Z,102.35
2023-11-12T05:00:15.126Z,126.57
2023-11-12T05:03:24.988Z,119.47
2023-11-12T05:06:33.181Z,110.96
2023-11-12T05:09:41.430Z,113.42
2023-11-12T05:12:49.619Z,111.77
2023-11-12T05:15:58.190Z,106.23
2023-11-12T05:19:09.086Z,115.14
2023-11-12T05:22:16.257Z,114.81
2023-11-12T05:25:24.565Z,114.30
2023-11-12T05:28:32.010Z,111.60
2023-11-12T05:31:40.300Z,112.19
2023-11-12T05:34:51.520Z,111.17
2023-11-12T05:37:59.613Z,103.95
2023-11-12T05:41:07.463Z,113.27
2023-11-12T05:44:15.466Z,110.86
2023-11-12T05:47:23.841Z,106.09
2023-11-12T05:50:41.596Z,110.46
2023-11-12T05:53:48.883Z,117.99
2023-11-12T05:56:57.117Z,114.96
2023-11-12T06:00:28.099Z,111.78
2023-11-12T06:03:57.242Z,115.06
2023-11-12T06:07:07.661Z,118.12
2023-11-12T06:10:31.064Z,114.09
2023-11-12T06:13:39.476Z,117.51
2023-11-12T06:16:47.522Z,123.28
2023-11-12T06:19:54.874Z,126.37
2023-11-12T06:23:18.104Z,121.19
2023-11-12T06:26:37.674Z,123.70
2023-11-12T06:29:45.821Z,117.00
2023-11-12T06:32:53.049Z,110.82
2023-11-12T06:36:01.127Z,106.99
2023-11-12T06:39:14.934Z,107.96
2023-11-12T06:42:25.019Z,111.77
2023-11-12T06:45:33.332Z,110.45
2023-11-12T06:48:41.433Z,109.57
2023-11-12T06:51:52.133Z,108.11
2023-11-12T06:55:05.824Z,111.14
2023-11-12T06:58:12.928Z,116.92
2023-11-12T07:01:20.942Z,114.50
2023-11-12T07:04:28.418Z,106.72
2023-11-12T07:07:36.552Z,109.96
2023-11-12T07:10:46.429Z,110.58
2023-11-12T07:13:54.504Z,115.22
2023-11-12T07:17:08.019Z,117.88
2023-11-12T07:20:41.240Z,126.47
2023-11-12T07:23:48.532Z,129.76
2023-11-12T07:26:59.245Z,149.44
2023-11-12T07:30:06.892Z,176.82
2023-11-12T07:33:15.022Z,162.05
2023-11-12T07:36:22.949Z,142.86
2023-11-12T07:39:31.169Z,140.98
2023-11-12T07:42:42.214Z,130.31
2023-11-12T07:45:50.564Z,132.89
2023-11-12T07:48:58.666Z,136.45
2023-11-12T07:52:07.374Z,143.78
2023-11-12T07:55:14.546Z,153.73
2023-11-12T07:58:25.314Z,145.32
2023-11-12T08:01:47.091Z,143.12
2023-11-12T08:05:15.465Z,137.20
2023-11-12T08:08:24.593Z,133.65
2023-11-12T08:11:32.778Z,129.07
2023-11-12T08:14:50.795Z,121.55
2023-11-12T08:18:00.995Z,114.44
2023-11-12T08:21:09.084Z,114.65
2023-11-12T08:24:17.506Z,129.00
2023-11-12T08:27:31.125Z,144.44
2023-11-12T08:30:59.384Z,133.35
2023-11-12T08:34:07.035Z,118.77
2023-11-12T08:37:15.443Z,110.06
2023-11-12T08:40:23.049Z,110.77
2023-11-12T08:43:31.219Z,104.73
2023-11-12T08:46:41.251Z,104.71
2023-11-12T08:49:49.425Z,104.25
2023-11-12T08:52:58.540Z,97.56
2023-11-12T08:56:07.780Z,108.35
2023-11-12T08:59:21.972Z,117.33
2023-11-12T09:02:39.103Z,114.23
2023-11-12T09:05:46.374Z,111.99
2023-11-12T09:08:54.577Z,103.70
2023-11-12T09:12:01.872Z,134.44
2023-11-12T09:15:12.719Z,136.39
2023-11-12T09:18:28.608Z,123.34
2023-11-12T09:21:36.949Z,125.92
2023-11-12T09:25:00.448Z,105.54
2023-11-12T09:28:15.491Z,107.80
2023-11-12T09:31:23.582Z,122.36
2023-11-12T09:34:35.873Z,113.78
2023-11-12T09:37:43.300Z,93.86
2023-11-12T09:40:59.826Z,93.53
2023-11-12T09:44:11.248Z,91.65
2023-11-12T09:47:46.757Z,96.00
2023-11-12T09:50:57.118Z,100.74
2023-11-12T09:54:06.840Z,102.30
2023-11-12T09:57:18.020Z,123.44
2023-11-12T10:00:26.323Z,126.80
2023-11-12T10:03:39.233Z,143.05
2023-11-12T10:06:51.727Z,149.31
2023-11-12T10:09:59.380Z,156.09
2023-11-12T10:13:26.081Z,162.20
2023-11-12T10:16:50.680Z,141.89
2023-11-12T10:20:00.630Z,138.19
2023-11-12T10:23:33.522Z,136.04
2023-11-12T10:27:09.300Z,132.56
2023-11-12T10:30:30.863Z,141.21
2023-11-12T10:33:58.115Z,139.77
2023-11-12T10:37:28.075Z,113.39
2023-11-12T10:41:13.377Z,134.00
2023-11-12T10:44:21.044Z,121.35
2023-11-12T10:47:31.739Z,130.40
2023-11-12T10:50:43.252Z,147.04
2023-11-12T10:54:09.530Z,112.34
2023-11-12T10:57:22.857Z,121.46
2023-11-12T11:00:31.683Z,109.03
2023-11-12T11:03:47.072Z,92.65
2023-11-12T11:07:11.123Z,106.80
2023-11-12T11:10:19.297Z,149.34
2023-11-12T11:13:44.196Z,131.43
2023-11-12T11:16:59.457Z,120.77
2023-11-12T11:20:13.617Z,118.37
2023-11-12T11:23:44.660Z,166.96
2023-11-12T11:27:16.518Z,173.58
2023-11-12T11:30:31.594Z,150.89
2023-11-12T11:33:52.793Z,211.32
2023-11-12T11:37:13.986Z,186.39
2023-11-12T11:40:38.014Z,177.74
2023-11-12T11:43:46.168Z,194.90
2023-11-12T11:47:28.098Z,220.34
2023-11-12T11:50:57.412Z,235.32
2023-11-12T11:54:09.166Z,214.98
2023-11-12T11:57:25.743Z,283.83
2023-11-12T12:00:33.956Z,256.17
2023-11-12T12:03:44.071Z,180.37
2023-11-12T12:06:52.947Z,209.06
2023-11-12T12:10:02.038Z,336.77
2023-11-12T12:13:16.680Z,349.35
2023-11-12T12:16:30.575Z,299.25
2023-11-12T12:19:41.894Z,309.25
2023-11-12T12:22:50.963Z,278.29
2023-11-12T12:26:00.759Z,227.43
2023-11-12T12:29:26.890Z,200.16
2023-11-12T12:32:47.201Z,211.43
2023-11-12T12:36:02.182Z,205.36
2023-11-12T12:39:31.247Z,209.83
2023-11-12T12:43:06.167Z,242.69
2023-11-12T12:46:16.809Z,207.20
2023-11-12T12:49:36.464Z,150.07
2023-11-12T12:52:49.347Z,181.80
2023-11-12T12:55:57.466Z,181.16
2023-11-12T12:59:05.547Z,183.08
2023-11-12T13:02:13.409Z,164.07
2023-11-12T13:05:26.998Z,143.51
2023-11-12T13:08:36.801Z,132.81
2023-11-12T13:11:50.181Z,163.22
2023-11-12T13:15:00.233Z,174.17
2023-11-12T13:18:08.871Z,164.54
2023-11-12T13:21:20.697Z,173.95
2023-11-12T13:24:31.526Z,168.63
2023-11-12T13:27:43.578Z,175.37
2023-11-12T13:30:54.664Z,192.39
2023-11-12T13:34:03.671Z,175.52
2023-11-12T13:37:12.144Z,152.75
2023-11-12T13:40:32.482Z,134.85
2023-11-12T13:43:44.823Z,132.27
2023-11-12T13:46:54.829Z,137.78
2023-11-12T13:50:11.131Z,147.48
2023-11-12T13:53:37.501Z,165.77
2023-11-12T13:56:49.245Z,196.06
2023-11-12T14:00:00.412Z,195.07
2023-11-12T14:03:14.865Z,225.97
2023-11-12T14:06:23.359Z,229.78
2023-11-12T14:09:37.354Z,257.42
2023-11-12T14:12:48.508Z,229.10
2023-11-12T14:15:59.785Z,234.63
2023-11-12T14:19:12.108Z,212.27
2023-11-12T14:22:20.547Z,227.27
2023-11-12T14:25:27.840Z,228.05
2023-11-12T14:28:40.319Z,245.84
2023-11-12T14:31:47.713Z,226.84
2023-11-12T14:34:56.327Z,234.94
2023-11-12T14:38:11.967Z,212.94
2023-11-12T14:41:22.231Z,204.89
2023-11-12T14:44:34.718Z,213.96
2023-11-12T14:47:43.539Z,221.12
2023-11-12T14:50:51.446Z,193.46
2023-11-12T14:54:04.276Z,167.71
2023-11-12T14:57:24.394Z,185.12
2023-11-12T15:00:36.783Z,158.20
2023-11-12T15:03:49.199Z,249.89
2023-11-12T15:06:57.667Z,226.26
2023-11-12T15:10:04.946Z,239.09
2023-11-12T15:13:13.362Z,264.10
2023-11-12T15:16:37.258Z,291.28
2023-11-12T15:19:58.622Z,220.60
2023-11-12T15:23:06.175Z,146.91
2023-11-12T15:26:18.571Z,155.94
2023-11-12T15:29:25.867Z,160.92
2023-11-12T15:32:36.567Z,160.28
2023-11-12T15:35:43.813Z,269.50
2023-11-12T15:39:00.912Z,257.79
2023-11-12T15:42:28.633Z,236.99
2023-11-12T15:45:36.803Z,256.50
2023-11-12T15:49:07.207Z,295.61
2023-11-12T15:52:18.702Z,329.27
2023-11-12T15:55:30.830Z,426.97
2023-11-12T15:58:39.004Z,377.97
2023-11-12T16:01:46.379Z,428.36
2023-11-12T16:04:57.200Z,447.57
2023-11-12T16:08:04.600Z,318.29
2023-11-12T16:11:19.080Z,308.31
2023-11-12T16:14:26.384Z,305.12
2023-11-12T16:17:36.815Z,291.37
2023-11-12T16:20:46.996Z,262.87
2023-11-12T16:23:55.295Z,293.46
2023-11-12T16:27:09.246Z,243.20
2023-11-12T16:30:25.839Z,214.58
2023-11-12T16:33:33.937Z,218.53
2023-11-12T16:36:44.876Z,189.64
2023-11-12T16:39:54.891Z,184.95
2023-11-12T16:43:04.441Z,241.56
2023-11-12T16:46:18.111Z,296.61
2023-11-12T16:49:45.155Z,283.16
2023-11-12T16:52:58.439Z,412.59
2023-11-12T16:56:06.790Z,388.65
2023-11-12T16:59:20.218Z,283.69
2023-11-12T17:02:43.283Z,282.70
2023-11-12T17:06:22.226Z,328.87
2023-11-12T17:09:53.052Z,380.83
2023-11-12T17:13:00.315Z,285.64
2023-11-12T17:16:16.280Z,254.69
2023-11-12T17:20:03.224Z,252.60
2023-11-12T17:23:11.550Z,265.55
2023-11-12T17:26:21.599Z,262.19
2023-11-12T17:29:30.233Z,223.56
2023-11-12T17:32:48.697Z,240.76
2023-11-12T17:35:56.739Z,215.44
2023-11-12T17:39:04.521Z,215.87
2023-11-12T17:42:15.314Z,248.91
2023-11-12T17:45:24.465Z,247.93
2023-11-12T17:48:33.234Z,257.73
2023-11-12T17:51:40.551Z,240.19
2023-11-12T17:54:48.988Z,231.63
2023-11-12T17:58:18.176Z,199.56
2023-11-12T18:01:33.886Z,229.32
2023-11-12T18:04:41.586Z,191.52
2023-11-12T18:07:49.772Z,225.51
2023-11-12T18:10:58.614Z,210.26
2023-11-12T18:14:17.090Z,216.86
2023-11-12T18:17:32.429Z,212.44
2023-11-12T18:20:42.307Z,217.17
2023-11-12T18:23:49.898Z,222.98
2023-11-12T18:27:10.162Z,197.85
2023-11-12T18:30:39.825Z,204.19
2023-11-12T18:33:56.446Z,216.93
2023-11-12T18:37:14.479Z,238.84
2023-11-12T18:40:41.165Z,245.22
2023-11-12T18:44:07.060Z,243.38
2023-11-12T18:47:17.801Z,233.40
2023-11-12T18:50:38.473Z,241.89
2023-11-12T18:53:59.592Z,264.16
2023-11-12T18:57:07.987Z,232.92
2023-11-12T19:00:25.892Z,210.79
2023-11-12T19:03:36.270Z,214.20
2023-11-12T19:06:48.002Z,224.80
2023-11-12T19:09:55.653Z,210.62
2023-11-12T19:13:05.083Z,209.46
2023-11-12T19:16:13.266Z,239.30
2023-11-12T19:19:26.284Z,240.46
2023-11-12T19:22:33.783Z,262.11
2023-11-12T19:25:44.562Z,272.20
2023-11-12T19:28:52.977Z,299.64
2023-11-12T19:32:02.393Z,303.17
2023-11-12T19:35:13.107Z,323.93
2023-11-12T19:38:21.449Z,383.03
2023-11-12T19:41:29.898Z,365.77
2023-11-12T19:44:38.323Z,350.21
2023-11-12T19:47:49.450Z,337.86
2023-11-12T19:51:00.216Z,345.56
2023-11-12T19:54:08.055Z,357.34
2023-11-12T19:57:19.537Z,371.67
2023-11-12T20:00:27.720Z,417.43
2023-11-12T20:03:39.345Z,439.37
2023-11-12T20:06:49.307Z,443.29
2023-11-12T20:09:57.482Z,433.74
2023-11-12T20:13:04.782Z,415.83
2023-11-12T20:16:13.375Z,386.86
2023-11-12T20:19:21.012Z,332.83
2023-11-12T20:22:33.515Z,298.19
2023-11-12T20:25:40.847Z,265.21
2023-11-12T20:28:56.819Z,246.96
2023-11-12T20:32:15.615Z,243.37
2023-11-12T20:35:24.232Z,242.56
2023-11-12T20:38:36.207Z,239.46
2023-11-12T20:41:44.697Z,246.29
2023-11-12T20:44:52.289Z,246.06
2023-11-12T20:48:03.336Z,233.29
2023-11-12T20:51:21.834Z,227.83
2023-11-12T20:54:32.514Z,239.30
2023-11-12T20:58:00.424Z,240.66
2023-11-12T21:01:17.408Z,239.99
2023-11-12T21:04:26.246Z,246.51
2023-11-12T21:07:54.275Z,268.19
2023-11-12T21:11:25.264Z,287.33
2023-11-12T21:15:01.913Z,277.28
2023-11-12T21:18:13.210Z,277.48
2023-11-12T21:21:22.166Z,264.40
2023-11-12T21:24:29.975Z,268.79
2023-11-12T21:27:44.858Z,275.27
2023-11-12T21:30:52.637Z,288.36
2023-11-12T21:34:01.414Z,279.05
2023-11-12T21:37:09.670Z,297.59
2023-11-12T21:40:18.060Z,288.29
2023-11-12T21:43:29.041Z,282.20
2023-11-12T21:46:37.316Z,278.63
2023-11-12T21:49:47.715Z,278.59
2023-11-12T21:52:59.115Z,285.05
2023-11-12T21:56:09.051Z,286.13
2023-11-12T21:59:21.280Z,265.17
2023-11-12T22:02:30.263Z,260.51
2023-11-12T22:05:58.223Z,272.18
2023-11-12T22:09:15.085Z,273.62
2023-11-12T22:12:42.219Z,281.09
2023-11-12T22:16:00.659Z,281.05
2023-11-12T22:19:29.241Z,271.55
2023-11-12T22:22:57.372Z,268.14
2023-11-12T22:26:09.017Z,247.57
2023-11-12T22:29:16.332Z,254.35
2023-11-12T22:32:28.993Z,241.77
2023-11-12T22:35:37.096Z,216.62
2023-11-12T22:38:45.187Z,217.51
2023-11-12T22:41:59.427Z,241.93
2023-11-12T22:45:15.688Z,240.89
2023-11-12T22:48:38.238Z,241.79
2023-11-12T22:51:51.872Z,235.32
2023-11-12T22:55:08.040Z,239.93
2023-11-12T22:58:16.134Z,226.21
2023-11-12T23:01:40.095Z,204.14
2023-11-12T23:05:00.223Z,176.70
2023-11-12T23:08:28.255Z,183.94
2023-11-12T23:11:37.549Z,197.21
2023-11-12T23:14:44.808Z,205.97
2023-11-12T23:18:00.003Z,207.96
2023-11-12T23:21:11.591Z,207.40
2023-11-12T23:24:19.912Z,201.44
2023-11-12T23:27:33.722Z,218.42
2023-11-12T23:30:45.096Z,210.34
2023-11-12T23:33:56.325Z,206.47
2023-11-12T23:37:08.113Z,211.82
2023-11-12T23:40:18.011Z,224.14
2023-11-12T23:43:26.311Z,229.73
2023-11-12T23:46:33.673Z,207.16
2023-11-12T23:49:41.733Z,194.31
2023-11-12T23:53:06.093Z,207.24
2023-11-12T23:56:34.290Z,211.82
